Palacios, Argentina
Current Conditions -  °F | °C
As of 12:00 PM on Thursday 30 Oct 2014 (Local Time) from SACO Reporting Station
Scattered Clouds Scattered Clouds  
Wind Chill: 73°   Ceiling: Unl
Heat Index: 73°   Visibility: 6mi
Dew Point: 52°   Wind: 6mph
Humidity: 47%   Direction: 230°SW
Pressure: 29.94"   Gusts: NA
Location:  30.72°S, 61.62°W
Report Text: SACO 301500Z 23005KT 9999 SCT020 SCT10023/11 Q1014
Loading
Personal Weather Stations






























Interactive Weather Map
Tropical Storm Tracking
New forecast layout! Learn more

10-Day Weather Forecast

Advertisements
Track Severe Weather on mobile